createdAt,value
2018-08-10T00:01:08.454Z,18.09
2018-08-10T00:03:36.817Z,18.17
2018-08-10T00:06:05.398Z,18.22
2018-08-10T00:08:33.740Z,18.21
2018-08-10T00:11:02.131Z,18.30
2018-08-10T00:13:30.465Z,18.33
2018-08-10T00:15:58.821Z,18.34
2018-08-10T00:18:27.156Z,18.36
2018-08-10T00:20:55.505Z,18.43
2018-08-10T00:23:23.851Z,18.43
2018-08-10T00:25:52.160Z,18.45
2018-08-10T00:28:20.484Z,18.55
2018-08-10T00:30:48.867Z,18.60
2018-08-10T00:33:17.236Z,18.43
2018-08-10T00:35:45.586Z,18.39
2018-08-10T00:38:13.954Z,18.40
2018-08-10T00:40:42.297Z,18.34
2018-08-10T00:43:10.668Z,18.45
2018-08-10T00:45:39.035Z,18.59
2018-08-10T00:48:07.429Z,18.63
2018-08-10T00:50:35.734Z,18.55
2018-08-10T00:53:04.201Z,18.49
2018-08-10T00:55:32.550Z,18.38
2018-08-10T00:58:00.865Z,18.10
2018-08-10T01:00:29.236Z,18.11
2018-08-10T01:02:57.706Z,18.21
2018-08-10T01:05:26.201Z,18.23
2018-08-10T01:07:54.530Z,18.26
2018-08-10T01:10:22.891Z,18.33
2018-08-10T01:12:51.252Z,18.32
2018-08-10T01:15:19.587Z,18.31
2018-08-10T01:17:48.133Z,18.32
2018-08-10T01:20:19.353Z,18.25
2018-08-10T01:22:53.005Z,18.21
2018-08-10T01:25:22.765Z,18.10
2018-08-10T01:27:59.585Z,18.05
2018-08-10T01:30:29.198Z,18.03
2018-08-10T01:32:57.778Z,18.08
2018-08-10T01:35:26.717Z,18.18
2018-08-10T01:37:56.130Z,18.25
2018-08-10T01:40:24.569Z,18.30
2018-08-10T01:42:52.933Z,18.25
2018-08-10T01:45:21.262Z,18.22
2018-08-10T01:47:49.721Z,18.17
2018-08-10T01:50:18.092Z,18.11
2018-08-10T01:52:46.508Z,18.10
2018-08-10T01:55:14.830Z,18.08
2018-08-10T01:57:43.197Z,18.04
2018-08-10T02:00:11.876Z,18.06
2018-08-10T02:02:40.230Z,18.05
2018-08-10T02:05:10.341Z,17.99
2018-08-10T02:07:39.437Z,17.98
2018-08-10T02:10:09.975Z,18.00
2018-08-10T02:12:38.851Z,17.99
2018-08-10T02:15:09.397Z,18.00
2018-08-10T02:17:38.163Z,18.00
2018-08-10T02:20:08.069Z,18.01
2018-08-10T02:22:36.698Z,18.01
2018-08-10T02:25:06.216Z,17.97
2018-08-10T02:27:34.764Z,17.92
2018-08-10T02:30:03.172Z,17.87
2018-08-10T02:32:31.475Z,17.86
2018-08-10T02:34:59.853Z,17.87
2018-08-10T02:37:28.236Z,17.84
2018-08-10T02:39:56.606Z,17.84
2018-08-10T02:42:24.906Z,17.83
2018-08-10T02:44:53.340Z,17.77
2018-08-10T02:47:23.545Z,17.78
2018-08-10T02:49:53.336Z,17.79
2018-08-10T02:52:22.022Z,17.83
2018-08-10T02:54:50.384Z,17.80
2018-08-10T02:57:18.737Z,17.73
2018-08-10T02:59:47.080Z,17.66
2018-08-10T03:02:16.045Z,17.59
2018-08-10T03:04:44.541Z,17.58
2018-08-10T03:07:13.009Z,17.46
2018-08-10T03:09:42.022Z,17.43
2018-08-10T03:12:11.836Z,17.44
2018-08-10T03:14:40.298Z,17.49
2018-08-10T03:17:08.877Z,17.53
2018-08-10T03:19:37.427Z,17.54
2018-08-10T03:22:06.472Z,17.50
2018-08-10T03:24:34.972Z,17.52
2018-08-10T03:27:03.523Z,17.53
2018-08-10T03:29:31.871Z,17.46
2018-08-10T03:32:00.212Z,17.40
2018-08-10T03:34:28.561Z,17.39
2018-08-10T03:36:56.888Z,17.37
2018-08-10T03:39:25.251Z,17.43
2018-08-10T03:41:53.638Z,17.45
2018-08-10T03:44:21.965Z,17.44
2018-08-10T03:46:50.318Z,17.42
2018-08-10T03:49:18.833Z,17.43
2018-08-10T03:51:47.171Z,17.47
2018-08-10T03:54:15.599Z,17.51
2018-08-10T03:56:43.992Z,17.44
2018-08-10T03:59:12.321Z,17.33
2018-08-10T04:01:40.732Z,17.28
2018-08-10T04:04:09.099Z,17.25
2018-08-10T04:06:37.448Z,17.17
2018-08-10T04:09:08.838Z,17.16
2018-08-10T04:11:37.207Z,17.22
2018-08-10T04:14:06.024Z,17.23
2018-08-10T04:16:34.357Z,17.29
2018-08-10T04:19:02.712Z,17.28
2018-08-10T04:21:31.049Z,17.27
2018-08-10T04:23:59.366Z,17.25
2018-08-10T04:26:27.715Z,17.25
2018-08-10T04:28:56.089Z,17.29
2018-08-10T04:31:24.461Z,17.29
2018-08-10T04:33:52.814Z,17.24
2018-08-10T04:36:21.157Z,17.20
2018-08-10T04:38:49.510Z,17.18
2018-08-10T04:41:17.833Z,17.49
2018-08-10T04:43:46.169Z,17.77
2018-08-10T04:46:14.501Z,17.89
2018-08-10T04:48:42.865Z,17.96
2018-08-10T04:51:11.182Z,18.08
2018-08-10T04:53:39.544Z,18.23
2018-08-10T04:56:07.845Z,18.19
2018-08-10T04:58:36.197Z,18.17
2018-08-10T05:01:04.568Z,18.13
2018-08-10T05:03:32.982Z,18.17
2018-08-10T05:06:01.376Z,18.09
2018-08-10T05:08:29.721Z,18.01
2018-08-10T05:10:58.037Z,18.05
2018-08-10T05:13:26.351Z,18.30
2018-08-10T05:15:54.704Z,18.64
2018-08-10T05:18:23.029Z,19.04
2018-08-10T05:20:51.379Z,19.50
2018-08-10T05:23:19.714Z,19.83
2018-08-10T05:25:48.058Z,20.03
2018-08-10T05:28:16.416Z,20.39
2018-08-10T05:30:44.890Z,20.62
2018-08-10T05:33:13.297Z,20.81
2018-08-10T05:35:41.658Z,20.89
2018-08-10T05:38:10.183Z,20.85
2018-08-10T05:40:38.737Z,20.85
2018-08-10T05:43:07.570Z,20.74
2018-08-10T05:45:35.921Z,20.58
2018-08-10T05:48:04.472Z,20.39
2018-08-10T05:50:32.747Z,20.24
2018-08-10T05:53:01.154Z,20.16
2018-08-10T05:55:29.676Z,20.07
2018-08-10T05:57:58.038Z,20.05
2018-08-10T06:00:26.387Z,20.05
2018-08-10T06:02:54.771Z,20.08
2018-08-10T06:05:23.085Z,20.09
2018-08-10T06:07:51.420Z,19.96
2018-08-10T06:10:19.806Z,19.83
2018-08-10T06:12:48.126Z,19.71
2018-08-10T06:15:16.665Z,19.69
2018-08-10T06:17:44.956Z,19.74
2018-08-10T06:20:13.390Z,19.78
2018-08-10T06:22:41.809Z,19.83
2018-08-10T06:25:10.238Z,19.93
2018-08-10T06:27:38.571Z,20.07
2018-08-10T06:30:09.951Z,20.09
2018-08-10T06:32:38.328Z,20.10
2018-08-10T06:35:06.783Z,19.95
2018-08-10T06:37:35.137Z,19.91
2018-08-10T06:40:03.668Z,19.79
2018-08-10T06:42:32.046Z,19.77
2018-08-10T06:45:00.565Z,19.78
2018-08-10T06:47:28.822Z,19.84
2018-08-10T06:49:57.145Z,19.83
2018-08-10T06:52:25.608Z,19.80
2018-08-10T06:54:53.980Z,19.80
2018-08-10T06:57:22.322Z,19.77
2018-08-10T06:59:50.643Z,19.74
2018-08-10T07:02:18.939Z,19.80
2018-08-10T07:04:47.268Z,19.91
2018-08-10T07:07:15.645Z,20.05
2018-08-10T07:09:43.961Z,20.11
2018-08-10T07:12:12.333Z,20.17
2018-08-10T07:14:40.646Z,20.12
2018-08-10T07:17:08.973Z,20.03
2018-08-10T07:19:37.353Z,20.03
2018-08-10T07:22:05.702Z,20.03
2018-08-10T07:24:34.052Z,20.04
2018-08-10T07:27:02.423Z,20.01
2018-08-10T07:29:30.903Z,20.00
2018-08-10T07:31:59.287Z,20.07
2018-08-10T07:34:27.674Z,20.09
2018-08-10T07:36:56.056Z,20.07
2018-08-10T07:39:24.407Z,20.14
2018-08-10T07:41:52.762Z,20.18
2018-08-10T07:44:21.125Z,20.20
2018-08-10T07:46:49.434Z,20.28
2018-08-10T07:49:17.817Z,20.34
2018-08-10T07:51:46.157Z,20.39
2018-08-10T07:54:14.469Z,20.47
2018-08-10T07:56:42.800Z,20.50
2018-08-10T07:59:11.324Z,20.52
2018-08-10T08:01:39.530Z,20.59
2018-08-10T08:04:08.662Z,20.66
2018-08-10T08:06:37.051Z,20.71
2018-08-10T08:09:08.217Z,20.86
2018-08-10T08:11:36.680Z,20.96
2018-08-10T08:14:05.024Z,20.77
2018-08-10T08:16:33.369Z,20.88
2018-08-10T08:19:01.701Z,21.03
2018-08-10T08:21:30.037Z,21.16
2018-08-10T08:23:58.480Z,21.17
2018-08-10T08:26:26.807Z,21.19
2018-08-10T08:28:55.214Z,21.23
2018-08-10T08:31:23.589Z,21.30
2018-08-10T08:34:04.180Z,21.25
2018-08-10T08:36:32.597Z,21.21
2018-08-10T08:41:19.441Z,21.16
2018-08-10T08:46:12.665Z,21.28
2018-08-10T08:48:45.716Z,21.34
2018-08-10T08:51:22.217Z,21.50
2018-08-10T08:54:01.913Z,21.77
2018-08-10T08:56:37.657Z,21.83
2018-08-10T08:59:06.004Z,21.79
2018-08-10T09:01:34.345Z,21.73
2018-08-10T09:04:55.535Z,21.71
2018-08-10T09:07:24.155Z,21.68
2018-08-10T09:09:52.453Z,21.71
2018-08-10T09:12:20.777Z,21.75
2018-08-10T09:14:54.313Z,21.80
2018-08-10T09:17:22.756Z,21.80
2018-08-10T09:19:51.084Z,21.76
2018-08-10T09:22:19.467Z,21.91
2018-08-10T09:24:47.888Z,21.85
2018-08-10T09:27:16.263Z,21.80
2018-08-10T09:29:44.597Z,21.95
2018-08-10T09:32:12.974Z,22.16
2018-08-10T09:34:41.381Z,22.40
2018-08-10T09:37:10.275Z,22.67
2018-08-10T09:39:38.673Z,22.81
2018-08-10T09:42:07.703Z,22.78
2018-08-10T09:44:36.229Z,22.88
2018-08-10T09:47:05.340Z,22.98
2018-08-10T09:49:52.504Z,23.06
2018-08-10T09:52:20.853Z,23.13
2018-08-10T09:55:28.228Z,23.10
2018-08-10T09:57:58.126Z,23.20
2018-08-10T10:00:31.877Z,23.28
2018-08-10T10:03:05.592Z,23.32
2018-08-10T10:05:33.947Z,23.21
2018-08-10T10:08:02.321Z,22.70
2018-08-10T10:10:30.708Z,22.65
2018-08-10T10:12:59.276Z,22.59
2018-08-10T10:15:27.648Z,22.30
2018-08-10T10:17:56.000Z,22.19
2018-08-10T10:20:24.371Z,22.19
2018-08-10T10:22:52.887Z,22.40
2018-08-10T10:25:21.253Z,22.63
2018-08-10T10:27:49.629Z,22.96
2018-08-10T10:30:17.968Z,23.20
2018-08-10T10:32:46.447Z,23.20
2018-08-10T10:35:14.816Z,23.24
2018-08-10T10:37:43.317Z,23.21
2018-08-10T10:40:12.015Z,23.14
2018-08-10T10:42:40.642Z,23.06
2018-08-10T10:45:11.852Z,23.02
2018-08-10T10:47:40.669Z,23.04
2018-08-10T10:50:10.257Z,22.96
2018-08-10T10:52:39.578Z,22.90
2018-08-10T10:55:08.910Z,22.86
2018-08-10T10:57:37.676Z,22.63
2018-08-10T11:00:08.100Z,22.45
2018-08-10T11:02:36.650Z,22.48
2018-08-10T11:05:05.777Z,22.60
2018-08-10T11:07:34.167Z,22.69
2018-08-10T11:10:02.533Z,22.77
2018-08-10T11:12:30.870Z,22.76
2018-08-10T11:14:59.238Z,22.68
2018-08-10T11:17:27.608Z,22.69
2018-08-10T11:19:56.007Z,22.86
2018-08-10T11:22:24.331Z,22.97
2018-08-10T11:24:52.748Z,23.13
2018-08-10T11:27:21.096Z,23.24
2018-08-10T11:29:49.649Z,23.28
2018-08-10T11:32:18.020Z,23.31
2018-08-10T11:34:46.392Z,23.39
2018-08-10T11:37:14.776Z,23.35
2018-08-10T11:39:43.106Z,23.15
2018-08-10T11:42:11.506Z,23.01
2018-08-10T11:44:39.895Z,22.95
2018-08-10T11:47:08.266Z,22.84
2018-08-10T11:49:36.636Z,22.57
2018-08-10T11:52:04.965Z,22.41
2018-08-10T11:54:33.435Z,22.22
2018-08-10T11:57:02.000Z,22.15
2018-08-10T11:59:30.392Z,22.14
2018-08-10T12:01:58.751Z,22.25
2018-08-10T12:04:27.182Z,22.51
2018-08-10T12:06:55.498Z,22.79
2018-08-10T12:09:23.867Z,22.89
2018-08-10T12:11:52.241Z,22.82
2018-08-10T12:14:20.620Z,22.71
2018-08-10T12:16:48.995Z,22.72
2018-08-10T12:19:17.380Z,22.92
2018-08-10T12:21:45.756Z,23.17
2018-08-10T12:24:14.137Z,23.18
2018-08-10T12:26:42.641Z,23.25
2018-08-10T12:29:11.023Z,23.30
2018-08-10T12:31:39.358Z,23.38
2018-08-10T12:34:07.727Z,23.39
2018-08-10T12:36:36.089Z,23.40
2018-08-10T12:39:08.120Z,23.31
2018-08-10T12:41:36.475Z,23.30
2018-08-10T12:44:04.987Z,23.40
2018-08-10T12:46:33.334Z,23.64
2018-08-10T12:49:01.643Z,23.72
2018-08-10T12:51:30.001Z,23.62
2018-08-10T12:53:58.612Z,23.50
2018-08-10T12:56:26.962Z,23.51
2018-08-10T12:58:55.568Z,23.43
2018-08-10T13:01:23.881Z,23.37
2018-08-10T13:03:52.285Z,23.28
2018-08-10T13:06:20.638Z,23.25
2018-08-10T13:08:49.006Z,23.25
2018-08-10T13:11:17.384Z,23.38
2018-08-10T13:13:45.730Z,23.59
2018-08-10T13:16:14.426Z,23.73
2018-08-10T13:18:43.037Z,23.89
2018-08-10T13:21:11.419Z,23.90
2018-08-10T13:23:39.722Z,23.61
2018-08-10T13:26:08.108Z,23.40
2018-08-10T13:28:36.458Z,23.32
2018-08-10T13:31:04.886Z,23.25
2018-08-10T13:33:33.227Z,23.38
2018-08-10T13:36:01.593Z,23.67
2018-08-10T13:38:30.009Z,23.80
2018-08-10T13:40:58.504Z,23.71
2018-08-10T13:43:26.841Z,23.74
2018-08-10T13:45:55.175Z,23.84
2018-08-10T13:48:23.536Z,23.94
2018-08-10T13:50:51.953Z,23.89
2018-08-10T13:53:20.509Z,23.82
2018-08-10T13:55:48.844Z,23.76
2018-08-10T13:58:17.234Z,23.69
2018-08-10T14:00:45.608Z,23.65
2018-08-10T14:03:13.997Z,23.65
2018-08-10T14:05:42.394Z,23.77
2018-08-10T14:08:10.767Z,23.98
2018-08-10T14:10:39.092Z,24.19
2018-08-10T14:13:07.470Z,24.19
2018-08-10T14:15:35.806Z,24.12
2018-08-10T14:18:04.265Z,23.99
2018-08-10T14:20:32.597Z,23.84
2018-08-10T14:23:00.943Z,23.71
2018-08-10T14:25:29.881Z,23.76
2018-08-10T14:27:58.263Z,23.94
2018-08-10T14:30:26.616Z,24.09
2018-08-10T14:32:54.987Z,24.21
2018-08-10T14:35:23.398Z,24.22
2018-08-10T14:37:51.768Z,24.25
2018-08-10T14:40:20.208Z,24.21
2018-08-10T14:42:48.534Z,24.20
2018-08-10T14:45:17.364Z,24.11
2018-08-10T14:47:45.728Z,24.05
2018-08-10T14:50:14.870Z,24.01
2018-08-10T14:52:43.349Z,24.01
2018-08-10T14:55:13.824Z,24.06
2018-08-10T14:57:42.195Z,24.00
2018-08-10T15:00:20.227Z,23.97
2018-08-10T15:02:48.834Z,24.01
2018-08-10T15:05:17.425Z,24.07
2018-08-10T15:07:46.020Z,24.08
2018-08-10T15:10:15.657Z,24.10
2018-08-10T15:12:44.664Z,24.16
2018-08-10T15:15:17.015Z,24.17
2018-08-10T15:17:45.947Z,24.22
2018-08-10T15:20:17.212Z,24.27
2018-08-10T15:22:45.768Z,24.21
2018-08-10T15:25:14.132Z,24.04
2018-08-10T15:27:43.142Z,23.95
2018-08-10T15:30:13.817Z,23.88
2018-08-10T15:32:42.574Z,23.84
2018-08-10T15:35:12.306Z,23.83
2018-08-10T15:37:40.630Z,23.84
2018-08-10T15:40:11.089Z,23.84
2018-08-10T15:42:39.470Z,23.84
2018-08-10T15:45:10.332Z,23.87
2018-08-10T15:47:38.721Z,23.90
2018-08-10T15:50:08.198Z,23.92
2018-08-10T15:52:36.565Z,23.88
2018-08-10T15:55:05.670Z,23.78
2018-08-10T15:57:34.054Z,23.68
2018-08-10T16:00:02.422Z,23.65
2018-08-10T16:02:30.769Z,23.72
2018-08-10T16:04:59.286Z,23.68
2018-08-10T16:07:27.689Z,23.65
2018-08-10T16:09:56.005Z,23.54
2018-08-10T16:12:24.372Z,23.49
2018-08-10T16:14:52.699Z,23.44
2018-08-10T16:17:21.056Z,23.39
2018-08-10T16:19:49.462Z,23.34
2018-08-10T16:22:17.806Z,23.40
2018-08-10T16:24:46.204Z,23.48
2018-08-10T16:27:14.540Z,23.57
2018-08-10T16:29:43.095Z,23.61
2018-08-10T16:32:11.491Z,23.61
2018-08-10T16:34:39.861Z,23.61
2018-08-10T16:37:08.509Z,23.67
2018-08-10T16:39:36.880Z,23.74
2018-08-10T16:42:05.295Z,23.83
2018-08-10T16:44:33.699Z,23.92
2018-08-10T16:47:02.248Z,23.90
2018-08-10T16:49:30.859Z,23.83
2018-08-10T16:51:59.208Z,23.75
2018-08-10T16:54:27.586Z,23.70
2018-08-10T16:56:55.966Z,23.69
2018-08-10T16:59:24.409Z,23.71
2018-08-10T17:01:52.716Z,23.66
2018-08-10T17:04:21.509Z,23.64
2018-08-10T17:06:49.929Z,23.66
2018-08-10T17:09:18.255Z,23.61
2018-08-10T17:11:46.622Z,23.57
2018-08-10T17:14:15.008Z,23.52
2018-08-10T17:16:43.368Z,23.51
2018-08-10T17:19:11.738Z,23.51
2018-08-10T17:21:40.097Z,23.42
2018-08-10T17:24:08.619Z,23.32
2018-08-10T17:26:37.137Z,23.23
2018-08-10T17:29:05.414Z,23.24
2018-08-10T17:31:33.797Z,23.27
2018-08-10T17:34:02.143Z,23.25
2018-08-10T17:36:30.757Z,23.18
2018-08-10T17:38:59.888Z,23.08
2018-08-10T17:41:28.275Z,22.97
2018-08-10T17:43:56.641Z,22.90
2018-08-10T17:46:25.018Z,22.80
2018-08-10T17:48:53.399Z,22.78
2018-08-10T17:51:21.780Z,22.74
2018-08-10T17:53:50.125Z,22.70
2018-08-10T17:56:18.449Z,22.67
2018-08-10T17:58:46.864Z,22.66
2018-08-10T18:01:15.166Z,22.65
2018-08-10T18:03:43.584Z,22.60
2018-08-10T18:06:11.922Z,22.55
2018-08-10T18:08:40.284Z,22.52
2018-08-10T18:11:08.698Z,22.51
2018-08-10T18:13:37.061Z,22.51
2018-08-10T18:16:05.633Z,22.50
2018-08-10T18:18:33.961Z,22.46
2018-08-10T18:21:02.375Z,22.44
2018-08-10T18:23:30.713Z,22.39
2018-08-10T18:25:59.043Z,22.34
2018-08-10T18:28:27.396Z,22.31
2018-08-10T18:30:56.045Z,22.27
2018-08-10T18:33:24.437Z,22.25
2018-08-10T18:35:52.745Z,22.21
2018-08-10T18:38:21.115Z,22.12
2018-08-10T18:40:49.501Z,22.04
2018-08-10T18:43:17.838Z,22.02
2018-08-10T18:45:46.169Z,22.00
2018-08-10T18:48:14.539Z,21.99
2018-08-10T18:50:42.928Z,21.94
2018-08-10T18:53:11.267Z,21.87
2018-08-10T18:55:39.607Z,21.81
2018-08-10T18:58:07.971Z,21.76
2018-08-10T19:00:36.307Z,21.69
2018-08-10T19:03:04.688Z,21.66
2018-08-10T19:05:33.004Z,21.57
2018-08-10T19:08:01.387Z,21.54
2018-08-10T19:10:30.432Z,21.49
2018-08-10T19:12:58.849Z,21.45
2018-08-10T19:15:27.198Z,21.45
2018-08-10T19:17:55.529Z,21.45
2018-08-10T19:20:23.983Z,21.39
2018-08-10T19:22:52.304Z,21.33
2018-08-10T19:25:20.671Z,21.26
2018-08-10T19:27:49.093Z,21.19
2018-08-10T19:30:21.120Z,21.13
2018-08-10T19:32:49.503Z,21.04
2018-08-10T19:35:18.447Z,20.99
2018-08-10T19:37:46.803Z,20.94
2018-08-10T19:40:16.316Z,20.90
2018-08-10T19:42:44.776Z,20.89
2018-08-10T19:45:14.183Z,20.90
2018-08-10T19:47:42.637Z,20.90
2018-08-10T19:50:12.498Z,20.93
2018-08-10T19:52:40.833Z,20.91
2018-08-10T19:55:10.737Z,20.89
2018-08-10T19:57:39.543Z,20.89
2018-08-10T20:00:09.432Z,20.86
2018-08-10T20:02:37.824Z,20.86
2018-08-10T20:05:07.212Z,20.83
2018-08-10T20:07:35.593Z,20.81
2018-08-10T20:10:04.803Z,20.79
2018-08-10T20:12:33.184Z,20.76
2018-08-10T20:15:01.539Z,20.72
2018-08-10T20:17:29.858Z,20.70
2018-08-10T20:19:58.194Z,20.66
2018-08-10T20:22:26.520Z,20.64
2018-08-10T20:24:54.863Z,20.60
2018-08-10T20:27:23.237Z,20.53
2018-08-10T20:29:51.613Z,20.47
2018-08-10T20:32:19.971Z,20.42
2018-08-10T20:34:48.354Z,20.40
2018-08-10T20:37:16.779Z,20.36
2018-08-10T20:39:45.163Z,20.29
2018-08-10T20:42:13.526Z,20.24
2018-08-10T20:44:41.853Z,20.14
2018-08-10T20:47:10.419Z,20.03
2018-08-10T20:49:38.868Z,19.93
2018-08-10T20:52:07.236Z,19.85
2018-08-10T20:54:35.572Z,19.76
2018-08-10T20:57:03.997Z,19.68
2018-08-10T20:59:32.344Z,19.60
2018-08-10T21:02:00.729Z,19.54
2018-08-10T21:04:29.201Z,19.47
2018-08-10T21:06:57.571Z,19.39
2018-08-10T21:09:25.913Z,19.33
2018-08-10T21:11:54.294Z,19.28
2018-08-10T21:14:22.634Z,19.22
2018-08-10T21:16:51.014Z,19.15
2018-08-10T21:19:19.396Z,19.09
2018-08-10T21:21:47.792Z,19.03
2018-08-10T21:24:16.133Z,18.98
2018-08-10T21:26:44.523Z,18.92
2018-08-10T21:29:12.922Z,18.88
2018-08-10T21:31:41.292Z,18.83
2018-08-10T21:34:09.660Z,18.78
2018-08-10T21:36:38.421Z,18.74
2018-08-10T21:39:09.389Z,18.69
2018-08-10T21:41:37.752Z,18.68
2018-08-10T21:44:06.388Z,18.67
2018-08-10T21:46:34.993Z,18.64
2018-08-10T21:49:03.374Z,18.62
2018-08-10T21:51:31.668Z,18.59
2018-08-10T21:54:00.084Z,18.58
2018-08-10T21:56:28.413Z,18.55
2018-08-10T21:58:56.748Z,18.54
2018-08-10T22:01:25.086Z,18.54
2018-08-10T22:03:53.530Z,18.53
2018-08-10T22:06:21.890Z,18.56
2018-08-10T22:08:50.253Z,18.57
2018-08-10T22:11:18.689Z,18.60
2018-08-10T22:13:52.305Z,18.57
2018-08-10T22:16:26.064Z,18.57
2018-08-10T22:18:59.777Z,18.56
2018-08-10T22:21:28.271Z,18.53
2018-08-10T22:23:56.666Z,18.51
2018-08-10T22:26:25.080Z,18.49
2018-08-10T22:28:53.438Z,18.52
2018-08-10T22:31:21.764Z,18.58
2018-08-10T22:33:50.114Z,18.62
2018-08-10T22:36:18.453Z,18.67
2018-08-10T22:38:46.848Z,18.72
2018-08-10T22:41:16.095Z,18.79
2018-08-10T22:43:44.494Z,18.84
2018-08-10T22:46:12.910Z,18.90
2018-08-10T22:48:41.242Z,18.96
2018-08-10T22:51:09.663Z,19.00
2018-08-10T22:53:38.123Z,19.03
2018-08-10T22:56:06.627Z,19.05
2018-08-10T22:58:35.015Z,19.05
2018-08-10T23:01:03.492Z,19.03
2018-08-10T23:03:32.237Z,19.04
2018-08-10T23:06:00.608Z,19.08
2018-08-10T23:08:29.112Z,19.10
2018-08-10T23:10:57.471Z,19.12
2018-08-10T23:13:25.862Z,19.14
2018-08-10T23:15:54.188Z,19.16
2018-08-10T23:18:22.660Z,19.18
2018-08-10T23:20:51.020Z,19.20
2018-08-10T23:23:19.335Z,19.20
2018-08-10T23:25:47.682Z,19.23
2018-08-10T23:28:16.036Z,19.26
2018-08-10T23:30:44.399Z,19.30
2018-08-10T23:33:12.691Z,19.32
2018-08-10T23:35:41.090Z,19.37
2018-08-10T23:38:09.516Z,19.38
2018-08-10T23:40:37.834Z,19.38
2018-08-10T23:43:06.573Z,19.39
2018-08-10T23:45:34.961Z,19.39
2018-08-10T23:48:03.385Z,19.40
2018-08-10T23:50:31.772Z,19.40
2018-08-10T23:53:00.121Z,19.39
2018-08-10T23:55:28.485Z,19.40
2018-08-10T23:57:56.885Z,19.41
